sensor_id;sensor_type;location;lat;lon;timestamp;P1;durP1;ratioP1;P2;durP2;ratioP2
6422;SDS011;3244;42.708;23.288;2022-10-16T00:01:03;6.97;;;5.93;;
6422;SDS011;3244;42.708;23.288;2022-10-16T00:03:31;7.22;;;5.65;;
6422;SDS011;3244;42.708;23.288;2022-10-16T00:05:58;7.45;;;6.32;;
6422;SDS011;3244;42.708;23.288;2022-10-16T00:08:25;6.72;;;6.22;;
6422;SDS011;3244;42.708;23.288;2022-10-16T00:10:52;8.60;;;6.60;;
6422;SDS011;3244;42.708;23.288;2022-10-16T00:13:18;7.32;;;6.72;;
6422;SDS011;3244;42.708;23.288;2022-10-16T00:15:45;9.65;;;8.18;;
6422;SDS011;3244;42.708;23.288;2022-10-16T00:18:12;13.80;;;9.93;;
6422;SDS011;3244;42.708;23.288;2022-10-16T00:20:40;15.85;;;9.60;;
6422;SDS011;3244;42.708;23.288;2022-10-16T00:23:07;19.90;;;12.18;;
6422;SDS011;3244;42.708;23.288;2022-10-16T00:25:35;20.48;;;11.02;;
6422;SDS011;3244;42.708;23.288;2022-10-16T00:28:02;11.40;;;9.40;;
6422;SDS011;3244;42.708;23.288;2022-10-16T00:30:28;17.50;;;9.68;;
6422;SDS011;3244;42.708;23.288;2022-10-16T00:32:55;10.75;;;8.15;;
6422;SDS011;3244;42.708;23.288;2022-10-16T00:35:22;12.80;;;9.48;;
6422;SDS011;3244;42.708;23.288;2022-10-16T00:37:49;16.60;;;9.50;;
6422;SDS011;3244;42.708;23.288;2022-10-16T00:40:16;11.10;;;8.10;;
6422;SDS011;3244;42.708;23.288;2022-10-16T00:42:43;15.45;;;9.85;;
6422;SDS011;3244;42.708;23.288;2022-10-16T00:45:10;19.20;;;11.75;;
6422;SDS011;3244;42.708;23.288;2022-10-16T00:47:37;16.45;;;10.63;;
6422;SDS011;3244;42.708;23.288;2022-10-16T00:50:06;11.52;;;8.90;;
6422;SDS011;3244;42.708;23.288;2022-10-16T00:52:33;12.25;;;8.00;;
6422;SDS011;3244;42.708;23.288;2022-10-16T00:55:01;7.90;;;6.82;;
6422;SDS011;3244;42.708;23.288;2022-10-16T00:57:29;8.38;;;7.22;;
6422;SDS011;3244;42.708;23.288;2022-10-16T00:59:55;16.73;;;8.07;;
6422;SDS011;3244;42.708;23.288;2022-10-16T01:02:23;9.25;;;6.95;;
6422;SDS011;3244;42.708;23.288;2022-10-16T01:04:50;13.90;;;8.23;;
6422;SDS011;3244;42.708;23.288;2022-10-16T01:07:20;11.05;;;7.55;;
6422;SDS011;3244;42.708;23.288;2022-10-16T01:09:54;11.00;;;8.88;;
6422;SDS011;3244;42.708;23.288;2022-10-16T01:12:26;17.50;;;11.00;;
6422;SDS011;3244;42.708;23.288;2022-10-16T01:14:56;17.65;;;10.98;;
6422;SDS011;3244;42.708;23.288;2022-10-16T01:17:26;19.15;;;10.88;;
6422;SDS011;3244;42.708;23.288;2022-10-16T01:20:03;15.07;;;9.75;;
6422;SDS011;3244;42.708;23.288;2022-10-16T01:22:35;14.43;;;9.75;;
6422;SDS011;3244;42.708;23.288;2022-10-16T01:25:04;18.05;;;9.13;;
6422;SDS011;3244;42.708;23.288;2022-10-16T01:27:33;17.10;;;10.25;;
6422;SDS011;3244;42.708;23.288;2022-10-16T01:30:04;12.30;;;9.20;;
6422;SDS011;3244;42.708;23.288;2022-10-16T01:32:33;11.38;;;9.50;;
6422;SDS011;3244;42.708;23.288;2022-10-16T01:35:03;17.55;;;10.68;;
6422;SDS011;3244;42.708;23.288;2022-10-16T01:37:32;17.83;;;10.05;;
6422;SDS011;3244;42.708;23.288;2022-10-16T01:40:02;17.48;;;10.73;;
6422;SDS011;3244;42.708;23.288;2022-10-16T01:42:30;15.25;;;9.48;;
6422;SDS011;3244;42.708;23.288;2022-10-16T01:44:58;11.82;;;8.82;;
6422;SDS011;3244;42.708;23.288;2022-10-16T01:47:26;12.95;;;10.00;;
6422;SDS011;3244;42.708;23.288;2022-10-16T01:49:53;12.82;;;9.05;;
6422;SDS011;3244;42.708;23.288;2022-10-16T01:52:21;18.15;;;10.88;;
6422;SDS011;3244;42.708;23.288;2022-10-16T01:54:49;11.82;;;9.75;;
6422;SDS011;3244;42.708;23.288;2022-10-16T01:57:17;15.90;;;10.35;;
6422;SDS011;3244;42.708;23.288;2022-10-16T01:59:45;13.30;;;9.27;;
6422;SDS011;3244;42.708;23.288;2022-10-16T02:02:14;14.30;;;8.55;;
6422;SDS011;3244;42.708;23.288;2022-10-16T02:04:42;15.25;;;9.52;;
6422;SDS011;3244;42.708;23.288;2022-10-16T02:07:09;10.35;;;8.48;;
6422;SDS011;3244;42.708;23.288;2022-10-16T02:09:36;11.32;;;8.30;;
6422;SDS011;3244;42.708;23.288;2022-10-16T02:12:03;10.23;;;8.65;;
6422;SDS011;3244;42.708;23.288;2022-10-16T02:14:31;9.90;;;8.02;;
6422;SDS011;3244;42.708;23.288;2022-10-16T02:16:58;10.40;;;8.00;;
6422;SDS011;3244;42.708;23.288;2022-10-16T02:19:26;12.18;;;8.90;;
6422;SDS011;3244;42.708;23.288;2022-10-16T02:21:54;12.70;;;8.38;;
6422;SDS011;3244;42.708;23.288;2022-10-16T02:24:22;9.82;;;8.27;;
6422;SDS011;3244;42.708;23.288;2022-10-16T02:26:52;9.73;;;7.85;;
6422;SDS011;3244;42.708;23.288;2022-10-16T02:29:21;8.75;;;7.70;;
6422;SDS011;3244;42.708;23.288;2022-10-16T02:31:49;8.77;;;8.02;;
6422;SDS011;3244;42.708;23.288;2022-10-16T02:34:17;9.88;;;7.50;;
6422;SDS011;3244;42.708;23.288;2022-10-16T02:36:45;9.10;;;8.05;;
6422;SDS011;3244;42.708;23.288;2022-10-16T02:39:14;8.98;;;8.07;;
6422;SDS011;3244;42.708;23.288;2022-10-16T02:41:41;10.25;;;8.60;;
6422;SDS011;3244;42.708;23.288;2022-10-16T02:44:07;10.48;;;7.25;;
6422;SDS011;3244;42.708;23.288;2022-10-16T02:46:34;8.70;;;7.70;;
6422;SDS011;3244;42.708;23.288;2022-10-16T02:49:00;8.95;;;7.13;;
6422;SDS011;3244;42.708;23.288;2022-10-16T02:51:27;11.30;;;8.32;;
6422;SDS011;3244;42.708;23.288;2022-10-16T02:53:55;10.45;;;7.70;;
6422;SDS011;3244;42.708;23.288;2022-10-16T02:56:21;8.77;;;7.65;;
6422;SDS011;3244;42.708;23.288;2022-10-16T02:58:48;13.60;;;7.97;;
6422;SDS011;3244;42.708;23.288;2022-10-16T03:01:14;8.05;;;7.28;;
6422;SDS011;3244;42.708;23.288;2022-10-16T03:03:41;7.28;;;6.70;;
6422;SDS011;3244;42.708;23.288;2022-10-16T03:06:08;7.60;;;6.88;;
6422;SDS011;3244;42.708;23.288;2022-10-16T03:08:35;8.35;;;7.35;;
6422;SDS011;3244;42.708;23.288;2022-10-16T03:11:03;8.00;;;7.20;;
6422;SDS011;3244;42.708;23.288;2022-10-16T03:13:29;9.25;;;8.20;;
6422;SDS011;3244;42.708;23.288;2022-10-16T03:15:55;8.77;;;7.45;;
6422;SDS011;3244;42.708;23.288;2022-10-16T03:18:22;7.47;;;6.60;;
6422;SDS011;3244;42.708;23.288;2022-10-16T03:20:48;7.65;;;6.90;;
6422;SDS011;3244;42.708;23.288;2022-10-16T03:23:15;7.43;;;6.82;;
6422;SDS011;3244;42.708;23.288;2022-10-16T03:25:41;7.95;;;7.00;;
6422;SDS011;3244;42.708;23.288;2022-10-16T03:28:09;8.45;;;7.30;;
6422;SDS011;3244;42.708;23.288;2022-10-16T03:30:36;9.77;;;7.22;;
6422;SDS011;3244;42.708;23.288;2022-10-16T03:33:04;8.18;;;7.35;;
6422;SDS011;3244;42.708;23.288;2022-10-16T03:35:31;7.72;;;6.95;;
6422;SDS011;3244;42.708;23.288;2022-10-16T03:37:58;8.43;;;6.30;;
6422;SDS011;3244;42.708;23.288;2022-10-16T03:40:24;9.05;;;7.35;;
6422;SDS011;3244;42.708;23.288;2022-10-16T03:42:51;8.52;;;7.30;;
6422;SDS011;3244;42.708;23.288;2022-10-16T03:45:20;7.10;;;6.47;;
6422;SDS011;3244;42.708;23.288;2022-10-16T03:47:47;7.38;;;6.50;;
6422;SDS011;3244;42.708;23.288;2022-10-16T03:50:14;9.18;;;6.68;;
6422;SDS011;3244;42.708;23.288;2022-10-16T03:52:40;8.90;;;6.80;;
6422;SDS011;3244;42.708;23.288;2022-10-16T03:55:07;9.38;;;6.75;;
6422;SDS011;3244;42.708;23.288;2022-10-16T03:57:33;8.13;;;6.85;;
6422;SDS011;3244;42.708;23.288;2022-10-16T04:00:00;13.57;;;7.53;;
6422;SDS011;3244;42.708;23.288;2022-10-16T04:02:28;8.00;;;7.20;;
6422;SDS011;3244;42.708;23.288;2022-10-16T04:04:54;9.52;;;7.03;;
6422;SDS011;3244;42.708;23.288;2022-10-16T04:07:21;10.43;;;7.93;;
6422;SDS011;3244;42.708;23.288;2022-10-16T04:09:47;12.82;;;9.00;;
6422;SDS011;3244;42.708;23.288;2022-10-16T04:12:14;14.60;;;7.95;;
6422;SDS011;3244;42.708;23.288;2022-10-16T04:14:40;9.73;;;7.28;;
6422;SDS011;3244;42.708;23.288;2022-10-16T04:17:07;9.40;;;8.35;;
6422;SDS011;3244;42.708;23.288;2022-10-16T04:19:35;11.10;;;7.50;;
6422;SDS011;3244;42.708;23.288;2022-10-16T04:22:01;7.53;;;6.57;;
6422;SDS011;3244;42.708;23.288;2022-10-16T04:24:27;6.93;;;6.25;;
6422;SDS011;3244;42.708;23.288;2022-10-16T04:26:54;6.85;;;6.22;;
6422;SDS011;3244;42.708;23.288;2022-10-16T04:29:21;9.05;;;7.32;;
6422;SDS011;3244;42.708;23.288;2022-10-16T04:31:47;8.48;;;7.68;;
6422;SDS011;3244;42.708;23.288;2022-10-16T04:34:14;8.90;;;7.82;;
6422;SDS011;3244;42.708;23.288;2022-10-16T04:36:41;10.45;;;7.00;;
6422;SDS011;3244;42.708;23.288;2022-10-16T04:39:08;13.50;;;8.55;;
6422;SDS011;3244;42.708;23.288;2022-10-16T04:41:34;8.80;;;6.93;;
6422;SDS011;3244;42.708;23.288;2022-10-16T04:44:01;13.63;;;7.28;;
6422;SDS011;3244;42.708;23.288;2022-10-16T04:46:27;11.38;;;6.65;;
6422;SDS011;3244;42.708;23.288;2022-10-16T04:48:54;11.90;;;7.28;;
6422;SDS011;3244;42.708;23.288;2022-10-16T04:51:20;9.45;;;6.82;;
6422;SDS011;3244;42.708;23.288;2022-10-16T04:53:48;8.32;;;7.53;;
6422;SDS011;3244;42.708;23.288;2022-10-16T04:56:15;10.77;;;7.50;;
6422;SDS011;3244;42.708;23.288;2022-10-16T04:58:41;14.48;;;7.47;;
6422;SDS011;3244;42.708;23.288;2022-10-16T05:01:08;17.70;;;8.27;;
6422;SDS011;3244;42.708;23.288;2022-10-16T05:03:34;15.90;;;7.80;;
6422;SDS011;3244;42.708;23.288;2022-10-16T05:06:01;9.68;;;7.72;;
6422;SDS011;3244;42.708;23.288;2022-10-16T05:08:29;12.23;;;7.85;;
6422;SDS011;3244;42.708;23.288;2022-10-16T05:10:57;13.30;;;7.10;;
6422;SDS011;3244;42.708;23.288;2022-10-16T05:13:23;10.45;;;7.85;;
6422;SDS011;3244;42.708;23.288;2022-10-16T05:15:50;11.43;;;7.72;;
6422;SDS011;3244;42.708;23.288;2022-10-16T05:18:16;11.65;;;7.97;;
6422;SDS011;3244;42.708;23.288;2022-10-16T05:20:43;11.73;;;7.90;;
6422;SDS011;3244;42.708;23.288;2022-10-16T05:23:09;9.95;;;8.68;;
6422;SDS011;3244;42.708;23.288;2022-10-16T05:25:36;13.63;;;9.45;;
6422;SDS011;3244;42.708;23.288;2022-10-16T05:28:04;17.17;;;10.82;;
6422;SDS011;3244;42.708;23.288;2022-10-16T05:30:31;14.77;;;8.95;;
6422;SDS011;3244;42.708;23.288;2022-10-16T05:32:57;9.68;;;7.60;;
6422;SDS011;3244;42.708;23.288;2022-10-16T05:35:24;10.13;;;8.02;;
6422;SDS011;3244;42.708;23.288;2022-10-16T05:37:50;8.15;;;7.35;;
6422;SDS011;3244;42.708;23.288;2022-10-16T05:40:17;8.35;;;7.50;;
6422;SDS011;3244;42.708;23.288;2022-10-16T05:42:43;9.13;;;7.63;;
6422;SDS011;3244;42.708;23.288;2022-10-16T05:45:12;18.67;;;8.38;;
6422;SDS011;3244;42.708;23.288;2022-10-16T05:47:38;20.33;;;8.88;;
6422;SDS011;3244;42.708;23.288;2022-10-16T05:50:05;24.77;;;7.75;;
6422;SDS011;3244;42.708;23.288;2022-10-16T05:52:32;17.95;;;8.82;;
6422;SDS011;3244;42.708;23.288;2022-10-16T05:54:58;12.50;;;7.47;;
6422;SDS011;3244;42.708;23.288;2022-10-16T05:57:24;15.70;;;7.63;;
6422;SDS011;3244;42.708;23.288;2022-10-16T05:59:51;8.60;;;7.57;;
6422;SDS011;3244;42.708;23.288;2022-10-16T06:02:19;14.95;;;8.50;;
6422;SDS011;3244;42.708;23.288;2022-10-16T06:04:45;8.95;;;8.05;;
6422;SDS011;3244;42.708;23.288;2022-10-16T06:07:12;7.80;;;6.95;;
6422;SDS011;3244;42.708;23.288;2022-10-16T06:09:38;14.18;;;8.35;;
6422;SDS011;3244;42.708;23.288;2022-10-16T06:12:05;11.55;;;7.50;;
6422;SDS011;3244;42.708;23.288;2022-10-16T06:14:31;9.07;;;6.57;;
6422;SDS011;3244;42.708;23.288;2022-10-16T06:16:58;9.43;;;8.15;;
6422;SDS011;3244;42.708;23.288;2022-10-16T06:19:26;10.15;;;8.70;;
6422;SDS011;3244;42.708;23.288;2022-10-16T06:21:52;14.93;;;10.43;;
6422;SDS011;3244;42.708;23.288;2022-10-16T06:24:19;22.38;;;9.80;;
6422;SDS011;3244;42.708;23.288;2022-10-16T06:26:45;15.90;;;8.05;;
6422;SDS011;3244;42.708;23.288;2022-10-16T06:29:12;12.65;;;8.18;;
6422;SDS011;3244;42.708;23.288;2022-10-16T06:31:38;10.82;;;9.18;;
6422;SDS011;3244;42.708;23.288;2022-10-16T06:34:05;14.77;;;8.18;;
6422;SDS011;3244;42.708;23.288;2022-10-16T06:36:35;10.80;;;8.70;;
6422;SDS011;3244;42.708;23.288;2022-10-16T06:39:02;10.93;;;8.25;;
6422;SDS011;3244;42.708;23.288;2022-10-16T06:41:29;10.90;;;8.57;;
6422;SDS011;3244;42.708;23.288;2022-10-16T06:43:55;19.50;;;12.48;;
6422;SDS011;3244;42.708;23.288;2022-10-16T06:46:22;15.32;;;9.68;;
6422;SDS011;3244;42.708;23.288;2022-10-16T06:48:49;12.27;;;9.68;;
6422;SDS011;3244;42.708;23.288;2022-10-16T06:51:16;11.85;;;8.65;;
6422;SDS011;3244;42.708;23.288;2022-10-16T06:53:45;18.63;;;10.82;;
6422;SDS011;3244;42.708;23.288;2022-10-16T06:56:14;21.13;;;9.23;;
6422;SDS011;3244;42.708;23.288;2022-10-16T06:58:41;12.88;;;9.85;;
6422;SDS011;3244;42.708;23.288;2022-10-16T07:01:07;11.05;;;9.70;;
6422;SDS011;3244;42.708;23.288;2022-10-16T07:03:35;11.10;;;9.20;;
6422;SDS011;3244;42.708;23.288;2022-10-16T07:06:02;10.95;;;9.65;;
6422;SDS011;3244;42.708;23.288;2022-10-16T07:08:30;10.57;;;9.40;;
6422;SDS011;3244;42.708;23.288;2022-10-16T07:11:01;9.48;;;8.52;;
6422;SDS011;3244;42.708;23.288;2022-10-16T07:13:28;11.13;;;8.63;;
6422;SDS011;3244;42.708;23.288;2022-10-16T07:15:55;10.70;;;8.48;;
6422;SDS011;3244;42.708;23.288;2022-10-16T07:18:21;15.50;;;10.20;;
6422;SDS011;3244;42.708;23.288;2022-10-16T07:20:51;10.70;;;8.48;;
6422;SDS011;3244;42.708;23.288;2022-10-16T07:23:17;8.60;;;7.70;;
6422;SDS011;3244;42.708;23.288;2022-10-16T07:25:44;13.63;;;7.65;;
6422;SDS011;3244;42.708;23.288;2022-10-16T07:28:12;9.50;;;7.90;;
6422;SDS011;3244;42.708;23.288;2022-10-16T07:30:38;9.18;;;7.00;;
6422;SDS011;3244;42.708;23.288;2022-10-16T07:33:05;8.20;;;7.47;;
6422;SDS011;3244;42.708;23.288;2022-10-16T07:35:32;8.27;;;7.55;;
6422;SDS011;3244;42.708;23.288;2022-10-16T07:37:58;8.18;;;7.28;;
6422;SDS011;3244;42.708;23.288;2022-10-16T07:40:25;11.40;;;7.03;;
6422;SDS011;3244;42.708;23.288;2022-10-16T07:42:52;9.48;;;7.07;;
6422;SDS011;3244;42.708;23.288;2022-10-16T07:45:20;9.35;;;7.93;;
6422;SDS011;3244;42.708;23.288;2022-10-16T07:47:46;8.10;;;7.03;;
6422;SDS011;3244;42.708;23.288;2022-10-16T07:50:13;8.73;;;6.85;;
6422;SDS011;3244;42.708;23.288;2022-10-16T07:52:39;7.43;;;6.68;;
6422;SDS011;3244;42.708;23.288;2022-10-16T07:55:06;8.25;;;6.85;;
6422;SDS011;3244;42.708;23.288;2022-10-16T07:57:32;10.10;;;7.70;;
6422;SDS011;3244;42.708;23.288;2022-10-16T07:59:59;10.95;;;7.55;;
6422;SDS011;3244;42.708;23.288;2022-10-16T08:02:27;11.25;;;8.10;;
6422;SDS011;3244;42.708;23.288;2022-10-16T08:04:54;9.38;;;7.82;;
6422;SDS011;3244;42.708;23.288;2022-10-16T08:07:20;9.38;;;8.57;;
6422;SDS011;3244;42.708;23.288;2022-10-16T08:09:48;14.60;;;12.10;;
6422;SDS011;3244;42.708;23.288;2022-10-16T08:12:15;12.27;;;9.77;;
6422;SDS011;3244;42.708;23.288;2022-10-16T08:14:42;10.45;;;9.30;;
6422;SDS011;3244;42.708;23.288;2022-10-16T08:17:08;11.48;;;9.35;;
6422;SDS011;3244;42.708;23.288;2022-10-16T08:19:36;10.18;;;8.98;;
6422;SDS011;3244;42.708;23.288;2022-10-16T08:22:03;8.18;;;7.10;;
6422;SDS011;3244;42.708;23.288;2022-10-16T08:24:29;9.35;;;7.75;;
6422;SDS011;3244;42.708;23.288;2022-10-16T08:26:57;9.95;;;7.93;;
6422;SDS011;3244;42.708;23.288;2022-10-16T08:29:24;9.05;;;7.38;;
6422;SDS011;3244;42.708;23.288;2022-10-16T08:31:50;9.07;;;7.10;;
6422;SDS011;3244;42.708;23.288;2022-10-16T08:34:17;7.28;;;6.57;;
6422;SDS011;3244;42.708;23.288;2022-10-16T08:36:44;6.15;;;5.72;;
6422;SDS011;3244;42.708;23.288;2022-10-16T08:39:11;5.97;;;5.38;;
6422;SDS011;3244;42.708;23.288;2022-10-16T08:41:49;5.13;;;4.35;;
6422;SDS011;3244;42.708;23.288;2022-10-16T08:47:06;13.68;;;4.85;;
6422;SDS011;3244;42.708;23.288;2022-10-16T08:49:35;4.53;;;4.18;;
6422;SDS011;3244;42.708;23.288;2022-10-16T08:52:03;5.93;;;4.50;;
6422;SDS011;3244;42.708;23.288;2022-10-16T08:54:31;5.75;;;3.38;;
6422;SDS011;3244;42.708;23.288;2022-10-16T08:57:01;4.75;;;4.45;;
6422;SDS011;3244;42.708;23.288;2022-10-16T08:59:33;6.72;;;4.10;;
6422;SDS011;3244;42.708;23.288;2022-10-16T09:01:59;8.90;;;4.88;;
6422;SDS011;3244;42.708;23.288;2022-10-16T09:04:37;5.50;;;4.72;;
6422;SDS011;3244;42.708;23.288;2022-10-16T09:07:11;6.35;;;4.78;;
6422;SDS011;3244;42.708;23.288;2022-10-16T09:09:48;5.75;;;4.63;;
6422;SDS011;3244;42.708;23.288;2022-10-16T09:12:17;8.23;;;4.65;;
6422;SDS011;3244;42.708;23.288;2022-10-16T09:14:49;6.15;;;5.57;;
6422;SDS011;3244;42.708;23.288;2022-10-16T09:17:22;4.68;;;4.35;;
6422;SDS011;3244;42.708;23.288;2022-10-16T09:19:53;4.13;;;3.58;;
6422;SDS011;3244;42.708;23.288;2022-10-16T09:22:22;4.53;;;4.13;;
6422;SDS011;3244;42.708;23.288;2022-10-16T09:24:51;6.95;;;4.30;;
6422;SDS011;3244;42.708;23.288;2022-10-16T09:27:17;7.03;;;5.07;;
6422;SDS011;3244;42.708;23.288;2022-10-16T09:29:44;3.78;;;3.50;;
6422;SDS011;3244;42.708;23.288;2022-10-16T09:32:12;4.03;;;3.60;;
6422;SDS011;3244;42.708;23.288;2022-10-16T09:34:39;3.78;;;3.20;;
6422;SDS011;3244;42.708;23.288;2022-10-16T09:37:09;4.28;;;3.88;;
6422;SDS011;3244;42.708;23.288;2022-10-16T09:39:45;4.40;;;4.03;;
6422;SDS011;3244;42.708;23.288;2022-10-16T09:42:13;4.70;;;3.55;;
6422;SDS011;3244;42.708;23.288;2022-10-16T09:44:40;6.07;;;4.32;;
6422;SDS011;3244;42.708;23.288;2022-10-16T09:47:12;7.38;;;3.60;;
6422;SDS011;3244;42.708;23.288;2022-10-16T09:49:39;3.90;;;3.65;;
6422;SDS011;3244;42.708;23.288;2022-10-16T09:52:16;3.80;;;3.60;;
6422;SDS011;3244;42.708;23.288;2022-10-16T09:54:53;3.65;;;3.45;;
6422;SDS011;3244;42.708;23.288;2022-10-16T09:57:20;7.70;;;3.72;;
6422;SDS011;3244;42.708;23.288;2022-10-16T09:59:47;4.20;;;3.90;;
6422;SDS011;3244;42.708;23.288;2022-10-16T10:02:14;4.10;;;3.75;;
6422;SDS011;3244;42.708;23.288;2022-10-16T10:04:44;6.35;;;3.83;;
6422;SDS011;3244;42.708;23.288;2022-10-16T10:07:16;4.60;;;4.05;;
6422;SDS011;3244;42.708;23.288;2022-10-16T10:09:43;3.53;;;3.33;;
6422;SDS011;3244;42.708;23.288;2022-10-16T10:12:17;5.18;;;3.28;;
6422;SDS011;3244;42.708;23.288;2022-10-16T10:14:45;4.65;;;4.10;;
6422;SDS011;3244;42.708;23.288;2022-10-16T10:17:15;3.63;;;3.30;;
6422;SDS011;3244;42.708;23.288;2022-10-16T10:19:44;3.17;;;2.97;;
6422;SDS011;3244;42.708;23.288;2022-10-16T10:22:21;4.45;;;4.05;;
6422;SDS011;3244;42.708;23.288;2022-10-16T10:24:59;4.00;;;3.80;;
6422;SDS011;3244;42.708;23.288;2022-10-16T10:27:30;3.92;;;3.63;;
6422;SDS011;3244;42.708;23.288;2022-10-16T10:30:02;3.80;;;3.45;;
6422;SDS011;3244;42.708;23.288;2022-10-16T10:32:33;8.88;;;3.30;;
6422;SDS011;3244;42.708;23.288;2022-10-16T10:35:05;4.00;;;3.70;;
6422;SDS011;3244;42.708;23.288;2022-10-16T10:37:46;4.38;;;4.00;;
6422;SDS011;3244;42.708;23.288;2022-10-16T10:40:19;4.35;;;3.95;;
6422;SDS011;3244;42.708;23.288;2022-10-16T10:42:55;5.00;;;3.63;;
6422;SDS011;3244;42.708;23.288;2022-10-16T10:45:26;3.83;;;3.53;;
6422;SDS011;3244;42.708;23.288;2022-10-16T10:47:59;4.07;;;3.72;;
6422;SDS011;3244;42.708;23.288;2022-10-16T10:50:30;3.30;;;3.08;;
6422;SDS011;3244;42.708;23.288;2022-10-16T10:53:00;4.88;;;3.80;;
6422;SDS011;3244;42.708;23.288;2022-10-16T10:55:31;5.50;;;3.83;;
6422;SDS011;3244;42.708;23.288;2022-10-16T11:00:53;3.50;;;3.20;;
6422;SDS011;3244;42.708;23.288;2022-10-16T11:03:31;3.67;;;3.38;;
6422;SDS011;3244;42.708;23.288;2022-10-16T11:05:59;6.63;;;3.47;;
6422;SDS011;3244;42.708;23.288;2022-10-16T11:08:28;5.80;;;3.33;;
6422;SDS011;3244;42.708;23.288;2022-10-16T11:11:00;6.97;;;3.65;;
6422;SDS011;3244;42.708;23.288;2022-10-16T11:13:30;10.52;;;3.90;;
6422;SDS011;3244;42.708;23.288;2022-10-16T11:16:00;3.80;;;3.60;;
6422;SDS011;3244;42.708;23.288;2022-10-16T11:18:30;3.80;;;3.50;;
6422;SDS011;3244;42.708;23.288;2022-10-16T11:20:59;5.45;;;5.05;;
6422;SDS011;3244;42.708;23.288;2022-10-16T11:23:27;6.32;;;4.93;;
6422;SDS011;3244;42.708;23.288;2022-10-16T11:25:56;7.28;;;4.90;;
6422;SDS011;3244;42.708;23.288;2022-10-16T11:28:23;5.28;;;3.97;;
6422;SDS011;3244;42.708;23.288;2022-10-16T11:30:53;4.85;;;4.38;;
6422;SDS011;3244;42.708;23.288;2022-10-16T11:33:24;4.82;;;4.43;;
6422;SDS011;3244;42.708;23.288;2022-10-16T11:35:53;6.03;;;4.38;;
6422;SDS011;3244;42.708;23.288;2022-10-16T11:38:21;5.68;;;4.53;;
6422;SDS011;3244;42.708;23.288;2022-10-16T11:40:51;5.03;;;4.07;;
6422;SDS011;3244;42.708;23.288;2022-10-16T11:43:20;3.70;;;3.38;;
6422;SDS011;3244;42.708;23.288;2022-10-16T11:45:49;3.65;;;3.35;;
6422;SDS011;3244;42.708;23.288;2022-10-16T11:48:20;4.57;;;3.75;;
6422;SDS011;3244;42.708;23.288;2022-10-16T11:50:51;8.20;;;4.18;;
6422;SDS011;3244;42.708;23.288;2022-10-16T11:53:21;4.10;;;3.80;;
6422;SDS011;3244;42.708;23.288;2022-10-16T11:55:49;3.70;;;3.30;;
6422;SDS011;3244;42.708;23.288;2022-10-16T11:58:20;4.00;;;3.65;;
6422;SDS011;3244;42.708;23.288;2022-10-16T12:00:51;3.50;;;3.28;;
6422;SDS011;3244;42.708;23.288;2022-10-16T12:03:20;3.88;;;3.55;;
6422;SDS011;3244;42.708;23.288;2022-10-16T12:08:32;5.65;;;3.45;;
6422;SDS011;3244;42.708;23.288;2022-10-16T12:11:06;3.67;;;3.15;;
6422;SDS011;3244;42.708;23.288;2022-10-16T12:13:33;3.85;;;3.53;;
6422;SDS011;3244;42.708;23.288;2022-10-16T12:16:04;3.13;;;2.90;;
6422;SDS011;3244;42.708;23.288;2022-10-16T12:18:32;3.20;;;3.00;;
6422;SDS011;3244;42.708;23.288;2022-10-16T12:20:58;2.75;;;2.55;;
6422;SDS011;3244;42.708;23.288;2022-10-16T12:23:32;3.53;;;3.22;;
6422;SDS011;3244;42.708;23.288;2022-10-16T12:25:59;5.15;;;3.55;;
6422;SDS011;3244;42.708;23.288;2022-10-16T12:28:27;3.20;;;2.90;;
6422;SDS011;3244;42.708;23.288;2022-10-16T12:30:55;3.03;;;2.83;;
6422;SDS011;3244;42.708;23.288;2022-10-16T12:33:23;9.73;;;3.60;;
6422;SDS011;3244;42.708;23.288;2022-10-16T12:35:50;3.33;;;3.13;;
6422;SDS011;3244;42.708;23.288;2022-10-16T12:38:17;3.15;;;2.90;;
6422;SDS011;3244;42.708;23.288;2022-10-16T12:40:46;5.72;;;3.20;;
6422;SDS011;3244;42.708;23.288;2022-10-16T12:43:27;3.17;;;2.83;;
6422;SDS011;3244;42.708;23.288;2022-10-16T12:46:01;3.60;;;3.30;;
6422;SDS011;3244;42.708;23.288;2022-10-16T12:48:28;21.40;;;13.73;;
6422;SDS011;3244;42.708;23.288;2022-10-16T12:50:55;90.20;;;48.47;;
6422;SDS011;3244;42.708;23.288;2022-10-16T12:53:22;18.08;;;12.38;;
6422;SDS011;3244;42.708;23.288;2022-10-16T12:55:55;3.97;;;3.58;;
6422;SDS011;3244;42.708;23.288;2022-10-16T12:58:27;5.20;;;3.80;;
6422;SDS011;3244;42.708;23.288;2022-10-16T13:01:01;5.38;;;3.25;;
6422;SDS011;3244;42.708;23.288;2022-10-16T13:03:40;3.08;;;2.60;;
6422;SDS011;3244;42.708;23.288;2022-10-16T13:06:14;2.72;;;2.53;;
6422;SDS011;3244;42.708;23.288;2022-10-16T13:08:46;4.40;;;2.95;;
6422;SDS011;3244;42.708;23.288;2022-10-16T13:11:19;3.20;;;3.00;;
6422;SDS011;3244;42.708;23.288;2022-10-16T13:16:35;3.25;;;3.00;;
6422;SDS011;3244;42.708;23.288;2022-10-16T13:19:09;4.32;;;2.92;;
6422;SDS011;3244;42.708;23.288;2022-10-16T13:21:42;2.92;;;2.72;;
6422;SDS011;3244;42.708;23.288;2022-10-16T13:24:17;2.78;;;2.58;;
6422;SDS011;3244;42.708;23.288;2022-10-16T13:26:48;2.70;;;2.50;;
6422;SDS011;3244;42.708;23.288;2022-10-16T13:29:17;3.40;;;3.10;;
6422;SDS011;3244;42.708;23.288;2022-10-16T13:31:44;3.15;;;2.90;;
6422;SDS011;3244;42.708;23.288;2022-10-16T13:34:12;3.40;;;3.20;;
6422;SDS011;3244;42.708;23.288;2022-10-16T13:36:43;3.33;;;3.05;;
6422;SDS011;3244;42.708;23.288;2022-10-16T13:39:11;4.13;;;2.90;;
6422;SDS011;3244;42.708;23.288;2022-10-16T13:41:38;7.78;;;4.03;;
6422;SDS011;3244;42.708;23.288;2022-10-16T13:44:07;2.97;;;2.67;;
6422;SDS011;3244;42.708;23.288;2022-10-16T13:46:38;3.25;;;2.95;;
6422;SDS011;3244;42.708;23.288;2022-10-16T13:49:05;4.57;;;3.25;;
6422;SDS011;3244;42.708;23.288;2022-10-16T13:51:32;3.72;;;2.65;;
6422;SDS011;3244;42.708;23.288;2022-10-16T13:54:00;4.47;;;3.08;;
6422;SDS011;3244;42.708;23.288;2022-10-16T13:56:27;3.00;;;2.80;;
6422;SDS011;3244;42.708;23.288;2022-10-16T13:59:00;3.22;;;2.92;;
6422;SDS011;3244;42.708;23.288;2022-10-16T14:01:29;6.00;;;2.25;;
6422;SDS011;3244;42.708;23.288;2022-10-16T14:04:00;3.05;;;2.60;;
6422;SDS011;3244;42.708;23.288;2022-10-16T14:06:28;2.95;;;2.75;;
6422;SDS011;3244;42.708;23.288;2022-10-16T14:08:57;3.13;;;2.85;;
6422;SDS011;3244;42.708;23.288;2022-10-16T14:11:25;2.50;;;2.40;;
6422;SDS011;3244;42.708;23.288;2022-10-16T14:13:52;2.88;;;2.67;;
6422;SDS011;3244;42.708;23.288;2022-10-16T14:16:20;3.42;;;2.45;;
6422;SDS011;3244;42.708;23.288;2022-10-16T14:18:50;3.47;;;2.53;;
6422;SDS011;3244;42.708;23.288;2022-10-16T14:21:18;5.47;;;2.60;;
6422;SDS011;3244;42.708;23.288;2022-10-16T14:23:45;10.82;;;2.85;;
6422;SDS011;3244;42.708;23.288;2022-10-16T14:26:12;4.85;;;2.90;;
6422;SDS011;3244;42.708;23.288;2022-10-16T14:28:39;4.47;;;2.58;;
6422;SDS011;3244;42.708;23.288;2022-10-16T14:31:19;3.30;;;3.00;;
6422;SDS011;3244;42.708;23.288;2022-10-16T14:34:02;3.45;;;2.70;;
6422;SDS011;3244;42.708;23.288;2022-10-16T14:36:29;5.35;;;2.92;;
6422;SDS011;3244;42.708;23.288;2022-10-16T14:41:49;3.92;;;3.45;;
6422;SDS011;3244;42.708;23.288;2022-10-16T14:44:18;15.52;;;4.32;;
6422;SDS011;3244;42.708;23.288;2022-10-16T14:46:53;5.65;;;3.83;;
6422;SDS011;3244;42.708;23.288;2022-10-16T14:49:27;3.17;;;2.88;;
6422;SDS011;3244;42.708;23.288;2022-10-16T14:51:54;3.28;;;3.05;;
6422;SDS011;3244;42.708;23.288;2022-10-16T14:54:22;3.90;;;2.65;;
6422;SDS011;3244;42.708;23.288;2022-10-16T14:56:50;6.13;;;2.88;;
6422;SDS011;3244;42.708;23.288;2022-10-16T14:59:28;2.72;;;2.63;;
6422;SDS011;3244;42.708;23.288;2022-10-16T15:02:16;2.63;;;2.42;;
6422;SDS011;3244;42.708;23.288;2022-10-16T15:04:46;3.40;;;2.65;;
6422;SDS011;3244;42.708;23.288;2022-10-16T15:07:29;3.38;;;2.50;;
6422;SDS011;3244;42.708;23.288;2022-10-16T15:09:58;3.30;;;3.10;;
6422;SDS011;3244;42.708;23.288;2022-10-16T15:12:25;3.22;;;2.90;;
6422;SDS011;3244;42.708;23.288;2022-10-16T15:14:52;3.08;;;2.78;;
6422;SDS011;3244;42.708;23.288;2022-10-16T15:17:18;3.85;;;3.55;;